Time;durP1;ratioP1;P1;durP2;ratioP2;P2;SDS_P1;SDS_P2;PMS_P1;PMS_P2;Temp;Humidity;BMP_temperature;BMP_pressure;BME280_temperature;BME280_humidity;BME280_pressure;Samples;Min_cycle;Max_cycle;Signal;HPM_P1;HPM_P2
2023/07/23 00:00:42;;;;;;;10.65;10.35;;;17.40;99.90;;;;;;6320222;22;20205;-79
2023/07/23 00:03:09;;;;;;;10.52;10.23;;;17.30;99.90;;;;;;6321950;22;20205;-79
2023/07/23 00:05:36;;;;;;;10.77;10.48;;;17.30;99.90;;;;;;6320718;22;20219;-79
2023/07/23 00:08:06;;;;;;;10.70;10.40;;;17.30;99.90;;;;;;6320197;22;20260;-79
2023/07/23 00:10:33;;;;;;;10.80;10.50;;;17.30;99.90;;;;;;6320359;22;20201;-79
2023/07/23 00:13:00;;;;;;;10.80;10.50;;;17.30;99.90;;;;;;6320186;22;20238;-79
2023/07/23 00:15:27;;;;;;;10.68;10.38;;;17.40;99.90;;;;;;6320329;22;20215;-79
2023/07/23 00:17:56;;;;;;;10.77;10.48;;;17.40;99.90;;;;;;6325127;22;20216;-79
2023/07/23 00:20:23;;;;;;;10.90;10.60;;;17.40;99.90;;;;;;6330990;22;20256;-77
2023/07/23 00:22:50;;;;;;;10.98;10.68;;;17.30;99.90;;;;;;6327745;22;20203;-79
2023/07/23 00:25:19;;;;;;;10.90;10.60;;;17.30;99.90;;;;;;6328904;22;20193;-78
2023/07/23 00:27:46;;;;;;;11.00;10.70;;;17.40;99.90;;;;;;6341277;22;20189;-78
2023/07/23 00:30:13;;;;;;;10.77;10.48;;;17.40;99.90;;;;;;6341373;22;20189;-78
2023/07/23 00:32:40;;;;;;;10.80;10.50;;;17.40;99.90;;;;;;6341814;22;20193;-78
2023/07/23 00:35:08;;;;;;;10.68;10.38;;;17.40;99.90;;;;;;6340908;22;20181;-78
2023/07/23 00:37:35;;;;;;;10.80;10.50;;;17.50;99.90;;;;;;6340265;22;20212;-78
2023/07/23 00:40:03;;;;;;;10.70;10.40;;;17.50;99.90;;;;;;6341207;22;20208;-78
2023/07/23 00:42:33;;;;;;;10.70;10.40;;;17.50;99.90;;;;;;6341767;22;20189;-78
2023/07/23 00:45:00;;;;;;;10.88;10.57;;;17.60;99.90;;;;;;6341640;22;20255;-79
2023/07/23 00:47:27;;;;;;;10.80;10.50;;;17.60;99.90;;;;;;6341118;22;20237;-79
2023/07/23 00:49:54;;;;;;;10.90;10.60;;;17.60;99.90;;;;;;6339668;22;20200;-78
2023/07/23 00:52:21;;;;;;;10.88;10.57;;;17.60;99.90;;;;;;6342420;22;20193;-79
2023/07/23 00:54:48;;;;;;;10.88;10.57;;;17.60;99.90;;;;;;6342222;22;20184;-78
2023/07/23 00:57:16;;;;;;;10.98;10.68;;;17.50;99.90;;;;;;6341318;22;20256;-78
2023/07/23 00:59:44;;;;;;;10.90;10.60;;;17.50;99.90;;;;;;6327724;22;20231;-78
2023/07/23 01:02:11;;;;;;;10.90;10.60;;;17.50;99.90;;;;;;6322668;22;20189;-78
2023/07/23 01:04:39;;;;;;;10.63;10.32;;;17.50;99.90;;;;;;6321166;22;20263;-78
2023/07/23 01:07:07;;;;;;;10.80;10.50;;;17.50;99.90;;;;;;6320363;22;20196;-79
2023/07/23 01:09:36;;;;;;;10.70;10.40;;;17.50;99.90;;;;;;6320396;22;20208;-78
2023/07/23 01:12:05;;;;;;;10.82;10.52;;;17.50;99.90;;;;;;6324049;22;20189;-79
2023/07/23 01:14:32;;;;;;;10.77;10.48;;;17.50;99.90;;;;;;6321249;22;20204;-79
2023/07/23 01:17:02;;;;;;;10.70;10.40;;;17.50;99.90;;;;;;6320156;22;20201;-78
2023/07/23 01:19:29;;;;;;;10.85;10.55;;;17.50;99.90;;;;;;6322269;22;20208;-79
2023/07/23 01:22:00;;;;;;;10.75;10.45;;;17.50;99.90;;;;;;6319510;22;20213;-79
2023/07/23 01:24:28;;;;;;;10.90;10.60;;;17.50;99.90;;;;;;6318004;22;20211;-79
2023/07/23 01:26:55;;;;;;;11.00;10.70;;;17.50;99.90;;;;;;6317242;22;20251;-79
2023/07/23 01:29:22;;;;;;;10.85;10.55;;;17.60;99.90;;;;;;6319570;22;21098;-79
2023/07/23 01:31:49;;;;;;;10.70;10.40;;;17.60;99.90;;;;;;6317901;22;20193;-79
2023/07/23 01:34:16;;;;;;;10.80;10.50;;;17.60;99.90;;;;;;6316846;22;20284;-79
2023/07/23 01:36:45;;;;;;;10.75;10.45;;;17.60;99.90;;;;;;6318303;22;20189;-79
2023/07/23 01:39:14;;;;;;;10.70;10.40;;;17.60;99.90;;;;;;6319174;22;20228;-79
2023/07/23 01:41:41;;;;;;;10.60;10.30;;;17.60;99.90;;;;;;6317606;22;20275;-79
2023/07/23 01:44:08;;;;;;;10.80;10.50;;;17.60;99.90;;;;;;6317269;22;20209;-79
2023/07/23 01:46:35;;;;;;;10.80;10.50;;;17.50;99.90;;;;;;6317291;22;20207;-79
2023/07/23 01:49:02;;;;;;;11.00;10.70;;;17.60;99.90;;;;;;6317007;22;20192;-79
2023/07/23 01:51:31;;;;;;;10.80;10.50;;;17.60;99.90;;;;;;6317412;22;20193;-79
2023/07/23 01:53:58;;;;;;;10.90;10.60;;;17.60;99.90;;;;;;6318627;22;20209;-79
2023/07/23 01:56:27;;;;;;;10.73;10.43;;;17.60;99.90;;;;;;6317142;22;20211;-79
2023/07/23 01:58:54;;;;;;;10.90;10.60;;;17.60;99.90;;;;;;6316939;22;20228;-78
2023/07/23 02:01:21;;;;;;;10.73;10.43;;;17.60;99.90;;;;;;6315793;22;20287;-78
2023/07/23 02:03:48;;;;;;;10.88;10.57;;;17.60;99.90;;;;;;6316308;22;20205;-79
2023/07/23 02:06:15;;;;;;;10.88;10.57;;;17.60;99.90;;;;;;6323669;22;20213;-78
2023/07/23 02:08:42;;;;;;;10.80;10.50;;;17.60;99.90;;;;;;6321988;22;20245;-78
2023/07/23 02:11:09;;;;;;;11.00;10.70;;;17.60;99.90;;;;;;6324108;22;20221;-78
2023/07/23 02:13:37;;;;;;;10.85;10.55;;;17.60;99.90;;;;;;6320477;22;20211;-78
2023/07/23 02:16:05;;;;;;;10.85;10.55;;;17.60;99.90;;;;;;6316818;22;20300;-79
2023/07/23 02:18:33;;;;;;;11.00;10.70;;;17.60;99.90;;;;;;6317083;22;20279;-79
2023/07/23 02:21:00;;;;;;;10.88;10.57;;;17.60;99.90;;;;;;6316378;22;20216;-79
2023/07/23 02:23:27;;;;;;;10.82;10.52;;;17.60;99.90;;;;;;6316780;22;20272;-79
2023/07/23 02:25:54;;;;;;;10.80;10.50;;;17.70;99.90;;;;;;6316858;22;20220;-80
2023/07/23 02:28:21;;;;;;;10.77;10.48;;;17.70;99.90;;;;;;6316881;22;20218;-79
2023/07/23 02:30:57;;;;;;;11.02;10.73;;;17.70;99.90;;;;;;6316780;22;20260;-79
2023/07/23 02:33:24;;;;;;;11.00;10.70;;;17.80;99.90;;;;;;6317207;22;20193;-80
2023/07/23 02:35:51;;;;;;;10.93;10.63;;;17.80;99.90;;;;;;6317725;22;20211;-79
2023/07/23 02:38:18;;;;;;;10.82;10.52;;;17.80;99.90;;;;;;6317473;22;20280;-79
2023/07/23 02:40:45;;;;;;;10.85;10.55;;;17.90;99.90;;;;;;6315941;22;20227;-79
2023/07/23 02:43:12;;;;;;;10.90;10.60;;;17.80;99.90;;;;;;6317060;22;20197;-79
2023/07/23 02:45:40;;;;;;;11.10;10.80;;;17.80;99.90;;;;;;6316177;22;20204;-78
2023/07/23 02:48:08;;;;;;;11.00;10.70;;;17.80;99.90;;;;;;6316694;22;20742;-79
2023/07/23 02:50:35;;;;;;;11.00;10.70;;;17.70;99.90;;;;;;6316101;22;20196;-79
2023/07/23 02:53:02;;;;;;;11.23;10.93;;;17.70;99.90;;;;;;6316078;22;20244;-79
2023/07/23 02:55:29;;;;;;;10.80;10.50;;;17.70;99.90;;;;;;6316270;22;20287;-80
2023/07/23 02:57:57;;;;;;;10.88;10.57;;;17.60;99.90;;;;;;6316971;22;20197;-78
2023/07/23 03:00:24;;;;;;;10.90;10.60;;;17.60;99.90;;;;;;6320991;22;20256;-85
2023/07/23 03:02:53;;;;;;;11.05;10.75;;;17.60;99.90;;;;;;6324774;22;20181;-86
2023/07/23 03:05:24;;;;;;;11.10;10.80;;;17.60;99.90;;;;;;6325070;22;20193;-86
2023/07/23 03:07:52;;;;;;;11.10;10.80;;;17.60;99.90;;;;;;6325257;22;20211;-85
2023/07/23 03:10:20;;;;;;;11.30;10.90;;;17.50;99.90;;;;;;6324369;22;20288;-85
2023/07/23 03:12:49;;;;;;;11.13;10.82;;;17.50;99.90;;;;;;6325397;22;20197;-86
2023/07/23 03:15:16;;;;;;;11.40;11.00;;;17.40;99.90;;;;;;6324939;22;20951;-85
2023/07/23 03:17:46;;;;;;;11.27;10.88;;;17.40;99.90;;;;;;6326084;22;20197;-85
2023/07/23 03:20:15;;;;;;;11.10;10.80;;;17.40;99.90;;;;;;6325820;22;20199;-85
2023/07/23 03:22:43;;;;;;;11.50;11.10;;;17.30;99.90;;;;;;6325787;22;20207;-86
2023/07/23 03:25:11;;;;;;;11.32;10.95;;;17.40;99.90;;;;;;6325941;22;20196;-85
2023/07/23 03:27:42;;;;;;;11.18;10.88;;;17.30;99.90;;;;;;6324710;22;20208;-86
2023/07/23 03:30:11;;;;;;;11.10;10.80;;;17.30;99.90;;;;;;6325544;22;20197;-85
2023/07/23 03:32:41;;;;;;;11.18;10.85;;;17.30;99.90;;;;;;6327090;22;20223;-85
2023/07/23 03:35:08;;;;;;;11.20;10.80;;;17.20;99.90;;;;;;6326392;22;20199;-86
2023/07/23 03:37:37;;;;;;;11.40;11.00;;;17.20;99.90;;;;;;6324447;22;20193;-85
2023/07/23 03:40:10;;;;;;;11.20;10.90;;;17.20;99.90;;;;;;6324635;22;20189;-86
2023/07/23 03:42:38;;;;;;;11.25;10.88;;;17.10;99.90;;;;;;6329610;22;20197;-85
2023/07/23 03:45:06;;;;;;;11.50;11.10;;;17.10;99.90;;;;;;6319521;22;20197;-86
2023/07/23 03:47:34;;;;;;;11.07;10.77;;;17.10;99.90;;;;;;6322922;22;20213;-85
2023/07/23 03:50:01;;;;;;;11.00;10.70;;;17.00;99.90;;;;;;6324838;22;20220;-85
2023/07/23 03:52:31;;;;;;;11.00;10.70;;;17.00;99.90;;;;;;6325350;22;20216;-86
2023/07/23 03:54:59;;;;;;;11.25;10.85;;;16.90;99.90;;;;;;6325734;22;20219;-85
2023/07/23 03:57:27;;;;;;;11.02;10.73;;;16.80;99.90;;;;;;6326052;22;20247;-86
2023/07/23 03:59:55;;;;;;;11.18;10.82;;;16.80;99.90;;;;;;6325500;22;20196;-86
2023/07/23 04:02:23;;;;;;;11.10;10.80;;;16.80;99.90;;;;;;6325213;22;20252;-86
2023/07/23 04:04:51;;;;;;;11.13;10.80;;;16.80;99.90;;;;;;6323910;22;20212;-85
2023/07/23 04:07:18;;;;;;;11.30;10.90;;;16.80;99.90;;;;;;6324773;22;20188;-85
2023/07/23 04:09:45;;;;;;;11.20;10.85;;;16.70;99.90;;;;;;6323502;22;20197;-86
2023/07/23 04:12:13;;;;;;;11.05;10.73;;;16.70;99.90;;;;;;6324510;22;20201;-85
2023/07/23 04:14:44;;;;;;;11.27;10.88;;;16.70;99.90;;;;;;6325112;22;20290;-85
2023/07/23 04:17:12;;;;;;;11.02;10.73;;;16.70;99.90;;;;;;6334615;22;20194;-86
2023/07/23 04:19:39;;;;;;;11.27;10.88;;;16.70;99.90;;;;;;6341075;22;20207;-83
2023/07/23 04:22:08;;;;;;;11.30;10.90;;;16.60;99.90;;;;;;6340588;22;20181;-84
2023/07/23 04:24:35;;;;;;;11.05;10.75;;;16.60;99.90;;;;;;6341791;22;20185;-84
2023/07/23 04:27:02;;;;;;;11.35;10.95;;;16.60;99.90;;;;;;6342348;22;20275;-85
2023/07/23 04:29:30;;;;;;;11.30;10.90;;;16.60;99.90;;;;;;6341603;22;20224;-86
2023/07/23 04:31:58;;;;;;;11.00;10.70;;;16.60;99.90;;;;;;6331755;22;20244;-85
2023/07/23 04:34:26;;;;;;;10.90;10.60;;;16.70;99.90;;;;;;6331352;22;20193;-86
2023/07/23 04:36:53;;;;;;;10.80;10.50;;;16.70;99.90;;;;;;6336059;22;20204;-86
2023/07/23 04:39:22;;;;;;;11.30;10.90;;;16.70;99.90;;;;;;6328851;22;20231;-84
2023/07/23 04:41:50;;;;;;;11.10;10.80;;;16.80;99.90;;;;;;6326057;22;20262;-85
2023/07/23 04:44:18;;;;;;;11.20;10.90;;;16.90;99.90;;;;;;6322776;22;20248;-86
2023/07/23 04:46:47;;;;;;;11.02;10.73;;;16.90;99.90;;;;;;6321551;22;20200;-86
2023/07/23 04:49:19;;;;;;;10.90;10.60;;;16.90;99.90;;;;;;6322837;22;20205;-86
2023/07/23 04:51:46;;;;;;;10.90;10.60;;;16.90;99.90;;;;;;6322906;22;20201;-85
2023/07/23 04:54:13;;;;;;;10.93;10.63;;;16.90;99.90;;;;;;6323552;22;20199;-86
2023/07/23 04:56:40;;;;;;;10.98;10.68;;;16.90;99.90;;;;;;6329673;22;20189;-85
2023/07/23 04:59:12;;;;;;;11.00;10.70;;;17.00;99.90;;;;;;6328306;22;20193;-86
2023/07/23 05:01:39;;;;;;;11.20;10.90;;;17.00;99.90;;;;;;6325810;22;20220;-85
2023/07/23 05:04:07;;;;;;;11.07;10.77;;;17.10;99.90;;;;;;6321363;22;20235;-85
2023/07/23 05:06:36;;;;;;;11.07;10.77;;;17.20;99.90;;;;;;6319554;22;20196;-84
2023/07/23 05:09:07;;;;;;;10.93;10.63;;;17.30;99.90;;;;;;6319798;22;20286;-86
2023/07/23 05:11:34;;;;;;;10.98;10.68;;;17.40;99.90;;;;;;6319525;22;20201;-86
2023/07/23 05:14:03;;;;;;;11.20;10.90;;;17.50;99.90;;;;;;6319759;22;20193;-86
2023/07/23 05:16:33;;;;;;;11.00;10.70;;;17.60;99.90;;;;;;6321376;22;20201;-85
2023/07/23 05:19:01;;;;;;;11.00;10.70;;;17.60;99.90;;;;;;6320558;22;20219;-85
2023/07/23 05:21:28;;;;;;;11.05;10.75;;;17.70;99.90;;;;;;6320365;22;20205;-85
2023/07/23 05:23:57;;;;;;;10.70;10.40;;;17.70;99.90;;;;;;6327706;22;20177;-86
2023/07/23 05:26:24;;;;;;;10.90;10.60;;;17.60;99.90;;;;;;6323168;22;20189;-85
2023/07/23 05:28:52;;;;;;;10.65;10.35;;;17.60;99.90;;;;;;6322715;22;20270;-86
2023/07/23 05:31:19;;;;;;;10.45;10.15;;;17.60;99.90;;;;;;6329697;22;20201;-85
2023/07/23 05:33:46;;;;;;;10.63;10.32;;;17.80;99.90;;;;;;6337844;22;20203;-85
2023/07/23 05:36:13;;;;;;;10.65;10.35;;;17.90;99.90;;;;;;6338261;22;20216;-85
2023/07/23 05:38:41;;;;;;;10.65;10.35;;;18.10;99.90;;;;;;6326328;22;20272;-86
2023/07/23 05:41:17;;;;;;;10.52;10.23;;;18.20;99.90;;;;;;6324484;22;20200;-85
2023/07/23 05:43:47;;;;;;;10.50;10.20;;;18.30;99.90;;;;;;6332486;22;20223;-86
2023/07/23 05:46:21;;;;;;;10.70;10.40;;;18.30;99.90;;;;;;6341036;22;20204;-84
2023/07/23 05:48:49;;;;;;;10.63;10.32;;;18.40;99.90;;;;;;6336972;22;20204;-85
2023/07/23 05:51:17;;;;;;;10.50;10.20;;;18.50;99.90;;;;;;6325536;22;20193;-85
2023/07/23 05:53:44;;;;;;;10.63;10.32;;;18.50;99.90;;;;;;6326173;22;20197;-85
2023/07/23 05:56:13;;;;;;;10.48;10.18;;;18.60;99.90;;;;;;6324960;22;20201;-86
2023/07/23 05:58:41;;;;;;;10.40;10.10;;;18.70;99.90;;;;;;6324207;22;20223;-85
2023/07/23 06:01:08;;;;;;;10.55;10.25;;;18.80;99.90;;;;;;6324106;22;20256;-85
2023/07/23 06:03:35;;;;;;;10.90;10.60;;;18.90;99.90;;;;;;6324405;22;20193;-86
2023/07/23 06:06:02;;;;;;;10.68;10.38;;;19.10;99.90;;;;;;6324065;22;20193;-86
2023/07/23 06:08:30;;;;;;;10.70;10.40;;;19.20;99.90;;;;;;6325070;22;20201;-85
2023/07/23 06:10:58;;;;;;;10.30;10.00;;;19.30;99.90;;;;;;6324355;22;20228;-86
2023/07/23 06:13:26;;;;;;;10.50;10.20;;;19.30;99.90;;;;;;6323132;22;20228;-85
2023/07/23 06:15:54;;;;;;;10.30;10.00;;;19.40;99.90;;;;;;6322570;22;20200;-85
2023/07/23 06:18:22;;;;;;;10.43;10.13;;;19.40;99.90;;;;;;6323267;22;20197;-86
2023/07/23 06:20:49;;;;;;;10.20;9.90;;;19.50;99.90;;;;;;6323393;22;20197;-86
2023/07/23 06:23:16;;;;;;;10.20;9.90;;;19.60;99.90;;;;;;6323789;22;20219;-86
2023/07/23 06:25:45;;;;;;;10.40;10.10;;;19.70;99.90;;;;;;6322702;22;20197;-86
2023/07/23 06:28:12;;;;;;;10.50;10.20;;;19.80;99.90;;;;;;6322673;22;20200;-85
2023/07/23 06:30:42;;;;;;;10.40;10.10;;;20.00;99.90;;;;;;6322032;22;20193;-86
2023/07/23 06:33:09;;;;;;;10.23;9.93;;;20.10;99.90;;;;;;6322049;22;20197;-85
2023/07/23 06:35:37;;;;;;;10.23;9.93;;;20.30;99.90;;;;;;6321519;22;20197;-86
2023/07/23 06:38:05;;;;;;;10.35;10.05;;;20.40;99.90;;;;;;6321451;22;20189;-86
2023/07/23 06:40:33;;;;;;;10.20;9.90;;;20.60;99.90;;;;;;6320851;22;20205;-86
2023/07/23 06:43:03;;;;;;;9.98;9.68;;;20.70;99.90;;;;;;6321216;22;20197;-86
2023/07/23 06:45:30;;;;;;;10.05;9.75;;;20.90;99.90;;;;;;6321793;22;20263;-85
2023/07/23 06:47:59;;;;;;;10.25;9.95;;;21.10;99.90;;;;;;6326563;22;20187;-85
2023/07/23 06:50:27;;;;;;;10.30;10.00;;;21.20;99.90;;;;;;6342370;22;20227;-85
2023/07/23 06:52:54;;;;;;;10.30;10.00;;;21.40;99.90;;;;;;6342323;22;20224;-85
2023/07/23 06:55:24;;;;;;;10.40;10.10;;;21.60;99.90;;;;;;6342283;22;20187;-85
2023/07/23 06:57:53;;;;;;;10.30;10.00;;;21.80;99.90;;;;;;6324327;22;20270;-85
2023/07/23 07:00:21;;;;;;;10.40;10.10;;;22.00;99.90;;;;;;6321583;22;20799;-86
2023/07/23 07:02:48;;;;;;;10.27;9.98;;;22.20;99.90;;;;;;6322768;22;20189;-86
2023/07/23 07:05:17;;;;;;;10.00;9.70;;;22.40;99.90;;;;;;6321367;22;20197;-86
2023/07/23 07:07:47;;;;;;;10.35;10.05;;;22.50;99.90;;;;;;6327295;22;20201;-87
2023/07/23 07:10:15;;;;;;;10.30;10.00;;;22.60;99.90;;;;;;6319220;22;20209;-86
2023/07/23 07:12:44;;;;;;;10.20;9.90;;;22.80;99.90;;;;;;6318861;22;20193;-86
2023/07/23 07:15:14;;;;;;;10.35;10.05;;;22.90;99.90;;;;;;6318438;22;20199;-85
2023/07/23 07:17:41;;;;;;;10.52;10.23;;;23.10;99.90;;;;;;6319002;22;20672;-86
2023/07/23 07:20:12;;;;;;;10.45;10.15;;;23.20;99.90;;;;;;6318486;22;20204;-86
2023/07/23 07:22:41;;;;;;;10.23;9.93;;;23.40;99.90;;;;;;6319134;22;20200;-86
2023/07/23 07:25:09;;;;;;;10.23;9.93;;;23.50;99.90;;;;;;6320013;22;20275;-85
2023/07/23 07:27:38;;;;;;;10.40;10.10;;;23.50;99.90;;;;;;6320000;22;20243;-86
2023/07/23 07:30:08;;;;;;;10.15;9.85;;;23.60;99.90;;;;;;6319308;22;20197;-87
2023/07/23 07:32:35;;;;;;;9.82;9.52;;;23.60;99.90;;;;;;6327660;22;20185;-85
2023/07/23 07:35:03;;;;;;;10.02;9.73;;;23.70;99.90;;;;;;6339472;22;20216;-86
2023/07/23 07:37:31;;;;;;;9.95;9.65;;;23.70;99.90;;;;;;6339579;22;20203;-86
2023/07/23 07:40:00;;;;;;;9.93;9.63;;;23.80;99.90;;;;;;6321920;22;20196;-85
2023/07/23 07:42:28;;;;;;;9.80;9.50;;;23.80;99.90;;;;;;6319461;22;20348;-85
2023/07/23 07:44:56;;;;;;;9.90;9.60;;;23.90;99.90;;;;;;6320009;22;20197;-86
2023/07/23 07:47:23;;;;;;;9.88;9.57;;;24.00;99.90;;;;;;6320841;22;20213;-85
2023/07/23 07:49:53;;;;;;;9.90;9.60;;;24.00;99.90;;;;;;6320456;22;20282;-86
2023/07/23 07:52:20;;;;;;;10.00;9.70;;;24.00;99.90;;;;;;6320689;22;20328;-86
2023/07/23 07:54:48;;;;;;;10.05;9.75;;;23.90;99.90;;;;;;6321221;22;20193;-86
2023/07/23 07:57:23;;;;;;;9.85;9.55;;;24.00;99.90;;;;;;6320733;22;20193;-85
2023/07/23 07:59:50;;;;;;;9.77;9.48;;;24.10;99.90;;;;;;6319499;22;20196;-86
2023/07/23 08:02:19;;;;;;;9.98;9.68;;;24.20;99.90;;;;;;6320013;22;20228;-85
2023/07/23 08:04:48;;;;;;;9.80;9.50;;;24.30;99.90;;;;;;6321250;22;20235;-86
2023/07/23 08:08:13;;;;;;;;;;;;;;;;;;;;;
2023/07/23 08:10:59;;;;;;;9.55;9.25;;;24.40;99.90;;;;;;6319732;22;20204;-85
2023/07/23 08:13:30;;;;;;;9.50;9.20;;;24.60;99.90;;;;;;6319701;22;20192;-86
2023/07/23 08:16:01;;;;;;;9.38;9.07;;;24.70;99.90;;;;;;6320038;22;20188;-87
2023/07/23 08:18:36;;;;;;;9.30;9.00;;;24.80;99.90;;;;;;6318797;22;20188;-85
2023/07/23 08:21:10;;;;;;;9.50;9.20;;;24.90;99.90;;;;;;6320147;22;20211;-86
2023/07/23 08:23:39;;;;;;;9.50;9.20;;;24.90;99.90;;;;;;6320806;22;20199;-86
2023/07/23 08:26:09;;;;;;;9.50;9.20;;;25.00;99.90;;;;;;6322254;22;20189;-86
2023/07/23 08:28:40;;;;;;;9.77;9.48;;;25.10;99.90;;;;;;6324303;22;20196;-86
2023/07/23 08:31:08;;;;;;;9.57;9.27;;;25.20;99.90;;;;;;6325015;22;20212;-87
2023/07/23 08:33:37;;;;;;;9.60;9.30;;;25.30;99.90;;;;;;6320955;22;20197;-85
2023/07/23 08:36:06;;;;;;;9.70;9.40;;;25.30;99.90;;;;;;6319259;22;20193;-85
2023/07/23 08:38:34;;;;;;;9.40;9.10;;;25.40;99.90;;;;;;6319594;22;20205;-87
2023/07/23 08:41:03;;;;;;;9.52;9.23;;;25.50;99.90;;;;;;6319931;22;20197;-86
2023/07/23 08:44:16;;;;;;;9.65;9.35;;;25.60;99.90;;;;;;6320468;22;20197;-86
2023/07/23 08:46:54;;;;;;;9.43;9.13;;;25.60;99.90;;;;;;6323033;22;20197;-85
2023/07/23 08:49:24;;;;;;;9.40;9.10;;;25.40;99.90;;;;;;6320582;22;20223;-85
2023/07/23 08:51:51;;;;;;;9.30;9.00;;;25.40;99.90;;;;;;6330248;22;20212;-86
2023/07/23 08:54:20;;;;;;;9.45;9.15;;;25.50;99.90;;;;;;6319321;22;20265;-85
2023/07/23 08:56:47;;;;;;;9.52;9.23;;;25.60;99.90;;;;;;6319441;22;20197;-85
2023/07/23 08:59:16;;;;;;;9.82;9.52;;;25.70;99.90;;;;;;6317963;22;20199;-85
2023/07/23 09:01:44;;;;;;;9.75;9.45;;;25.80;99.90;;;;;;6317400;22;20211;-77
2023/07/23 09:04:14;;;;;;;9.50;9.20;;;25.90;99.90;;;;;;6318587;22;20193;-77
2023/07/23 09:06:43;;;;;;;9.70;9.40;;;26.00;99.90;;;;;;6316919;22;20231;-77
2023/07/23 09:09:12;;;;;;;9.60;9.30;;;26.30;99.90;;;;;;6315542;22;20204;-77
2023/07/23 09:11:40;;;;;;;9.57;9.27;;;26.30;99.90;;;;;;6316578;22;20244;-77
2023/07/23 09:14:10;;;;;;;9.48;9.18;;;26.40;99.90;;;;;;6317927;22;20201;-77
2023/07/23 09:16:41;;;;;;;9.30;9.00;;;26.50;99.90;;;;;;6316992;22;20209;-77
2023/07/23 09:19:10;;;;;;;9.63;9.32;;;26.50;99.90;;;;;;6316546;22;20192;-76
2023/07/23 09:21:39;;;;;;;9.45;9.15;;;26.50;99.90;;;;;;6315612;22;20200;-77
2023/07/23 09:24:09;;;;;;;9.80;9.50;;;26.60;99.90;;;;;;6316896;22;20196;-77
2023/07/23 09:26:37;;;;;;;10.00;9.70;;;26.60;99.90;;;;;;6326064;22;20192;-77
2023/07/23 09:29:09;;;;;;;9.95;9.65;;;26.70;99.90;;;;;;6316410;22;20204;-77
2023/07/23 09:31:43;;;;;;;9.80;9.50;;;26.50;99.90;;;;;;6315944;22;20203;-77
2023/07/23 09:34:10;;;;;;;9.82;9.52;;;26.50;99.90;;;;;;6316278;22;20188;-77
2023/07/23 09:36:37;;;;;;;9.50;9.20;;;26.60;99.90;;;;;;6317784;22;20189;-77
2023/07/23 09:39:06;;;;;;;9.70;9.40;;;26.60;99.90;;;;;;6316841;22;20240;-77
2023/07/23 09:41:36;;;;;;;9.50;9.20;;;26.80;99.90;;;;;;6315778;22;20228;-77
2023/07/23 09:44:07;;;;;;;9.70;9.40;;;26.80;99.90;;;;;;6320236;22;20192;-76
2023/07/23 09:46:35;;;;;;;9.75;9.45;;;27.10;99.90;;;;;;6319147;22;20209;-77
2023/07/23 09:49:03;;;;;;;9.60;9.30;;;27.00;99.90;;;;;;6316524;22;20271;-76
2023/07/23 09:51:32;;;;;;;9.70;9.40;;;27.10;99.90;;;;;;6317066;22;20201;-76
2023/07/23 09:54:01;;;;;;;9.60;9.30;;;27.10;99.90;;;;;;6317470;22;20276;-77
2023/07/23 09:56:29;;;;;;;9.52;9.23;;;26.90;99.90;;;;;;6316389;22;20201;-77
2023/07/23 09:58:58;;;;;;;9.60;9.30;;;27.10;99.90;;;;;;6317511;22;20208;-80
2023/07/23 10:01:26;;;;;;;9.52;9.23;;;27.30;99.90;;;;;;6316304;22;20272;-80
2023/07/23 10:03:54;;;;;;;9.88;9.57;;;27.60;99.90;;;;;;6316939;22;20275;-77
2023/07/23 10:06:24;;;;;;;9.90;9.60;;;27.70;99.90;;;;;;6317164;22;20197;-77
2023/07/23 10:08:51;;;;;;;9.88;9.57;;;28.10;99.90;;;;;;6317634;22;20189;-77
2023/07/23 10:11:20;;;;;;;9.90;9.60;;;28.60;99.90;;;;;;6317117;22;20217;-77
2023/07/23 10:13:48;;;;;;;9.95;9.65;;;28.80;99.90;;;;;;6317440;22;20209;-77
2023/07/23 10:16:22;;;;;;;10.30;10.00;;;28.70;99.90;;;;;;6317098;22;20252;-78
2023/07/23 10:18:51;;;;;;;10.40;10.10;;;28.60;99.90;;;;;;6317080;22;20191;-77
2023/07/23 10:21:19;;;;;;;10.38;10.07;;;28.40;99.90;;;;;;6325834;22;20241;-77
2023/07/23 10:23:56;;;;;;;10.30;10.00;;;28.30;99.90;;;;;;6332251;22;20211;-76
2023/07/23 10:26:25;;;;;;;10.13;9.82;;;28.00;99.90;;;;;;6327266;22;20268;-77
2023/07/23 10:28:57;;;;;;;10.18;9.88;;;27.90;99.90;;;;;;6319285;22;20229;-77
2023/07/23 10:31:27;;;;;;;10.25;9.95;;;28.00;99.90;;;;;;6316478;22;20663;-77
2023/07/23 10:33:54;;;;;;;10.05;9.75;;;28.10;99.90;;;;;;6316249;22;20216;-77
2023/07/23 10:36:23;;;;;;;10.13;9.82;;;28.20;99.90;;;;;;6316473;22;20207;-77
2023/07/23 10:39:17;;;;;;;10.07;9.77;;;28.20;99.90;;;;;;6317668;22;20215;-77
2023/07/23 10:41:53;;;;;;;10.40;10.10;;;28.20;99.90;;;;;;6316508;22;20216;-78
2023/07/23 10:44:25;;;;;;;10.23;9.93;;;28.60;99.90;;;;;;6316511;22;20189;-77
2023/07/23 10:46:52;;;;;;;10.38;10.07;;;28.80;99.90;;;;;;6316525;22;20204;-77
2023/07/23 10:49:24;;;;;;;10.55;10.25;;;28.70;99.90;;;;;;6317381;22;20201;-77
2023/07/23 10:51:52;;;;;;;10.23;9.93;;;28.70;99.90;;;;;;6317062;22;20232;-77
2023/07/23 10:54:21;;;;;;;10.38;10.07;;;28.90;99.90;;;;;;6317340;22;20201;-77
2023/07/23 10:56:50;;;;;;;10.20;9.90;;;29.00;99.90;;;;;;6317215;22;20197;-77
2023/07/23 10:59:21;;;;;;;10.20;9.90;;;28.70;99.90;;;;;;6316403;22;20197;-77
2023/07/23 11:01:52;;;;;;;10.25;9.95;;;28.40;99.90;;;;;;6316221;22;20200;-77
2023/07/23 11:04:24;;;;;;;10.30;10.00;;;28.20;99.90;;;;;;6316798;22;20189;-77
2023/07/23 11:06:57;;;;;;;10.20;9.90;;;28.00;99.90;;;;;;6316819;22;20197;-77
2023/07/23 11:09:32;;;;;;;10.27;9.98;;;28.00;99.90;;;;;;6317066;22;20211;-77
2023/07/23 11:12:00;;;;;;;9.98;9.68;;;28.20;99.90;;;;;;6316506;22;20196;-77
2023/07/23 11:14:29;;;;;;;10.50;10.20;;;28.40;99.90;;;;;;6316691;22;20201;-77
2023/07/23 11:16:59;;;;;;;10.38;10.07;;;28.40;99.90;;;;;;6327378;22;20257;-77
2023/07/23 11:19:28;;;;;;;10.43;10.13;;;28.30;99.90;;;;;;6315776;22;20288;-77
2023/07/23 11:21:58;;;;;;;10.27;9.98;;;28.30;99.90;;;;;;6316210;22;20193;-77
2023/07/23 11:24:29;;;;;;;10.30;10.00;;;28.10;99.90;;;;;;6321548;22;20197;-76
2023/07/23 11:26:58;;;;;;;10.20;9.90;;;28.00;99.90;;;;;;6319333;22;20219;-77
2023/07/23 11:29:26;;;;;;;9.90;9.60;;;28.10;99.90;;;;;;6316338;22;20200;-77
2023/07/23 11:31:54;;;;;;;10.10;9.80;;;28.10;99.90;;;;;;6315693;22;20205;-78
2023/07/23 11:34:23;;;;;;;10.05;9.75;;;28.20;99.90;;;;;;6315893;22;20189;-76
2023/07/23 11:36:54;;;;;;;10.13;9.82;;;28.30;99.90;;;;;;6316812;22;20239;-77
2023/07/23 11:39:23;;;;;;;10.10;9.80;;;28.10;99.90;;;;;;6318525;22;20259;-77
2023/07/23 11:41:53;;;;;;;10.20;9.90;;;28.10;99.90;;;;;;6316247;22;20200;-77
2023/07/23 11:44:20;;;;;;;10.48;10.18;;;28.10;99.90;;;;;;6317148;22;20185;-79
2023/07/23 11:46:48;;;;;;;10.25;9.95;;;28.10;99.90;;;;;;6315879;22;20199;-77
2023/07/23 11:49:15;;;;;;;10.00;9.70;;;27.90;99.90;;;;;;6316075;22;20192;-78
2023/07/23 11:51:42;;;;;;;10.07;9.77;;;27.90;99.90;;;;;;6315691;22;20706;-77
2023/07/23 11:54:12;;;;;;;10.20;9.90;;;28.00;99.90;;;;;;6315484;22;20224;-77
2023/07/23 11:56:42;;;;;;;10.05;9.75;;;27.90;99.90;;;;;;6316897;22;20591;-77
2023/07/23 11:59:13;;;;;;;9.98;9.68;;;27.80;99.90;;;;;;6316211;22;20275;-77
2023/07/23 12:01:41;;;;;;;10.00;9.70;;;27.90;99.90;;;;;;6316066;22;20199;-77
2023/07/23 12:04:10;;;;;;;9.80;9.50;;;28.20;99.90;;;;;;6316985;22;20192;-77
2023/07/23 12:06:38;;;;;;;10.00;9.70;;;28.30;99.90;;;;;;6316751;22;20197;-78
2023/07/23 12:09:08;;;;;;;9.70;9.40;;;28.40;99.90;;;;;;6316918;22;20203;-77
2023/07/23 12:11:37;;;;;;;9.90;9.60;;;28.40;99.90;;;;;;6319184;22;20296;-77
2023/07/23 12:14:06;;;;;;;10.10;9.80;;;28.20;99.90;;;;;;6322221;22;20253;-78
2023/07/23 12:16:40;;;;;;;10.00;9.70;;;28.20;99.90;;;;;;6316129;22;20201;-76
2023/07/23 12:19:09;;;;;;;10.10;9.80;;;28.20;99.90;;;;;;6314444;22;20189;-76
2023/07/23 12:21:38;;;;;;;9.80;9.50;;;28.00;99.90;;;;;;6315329;22;20216;-76
2023/07/23 12:24:19;;;;;;;10.00;9.70;;;27.80;99.90;;;;;;6314818;22;20200;-76
2023/07/23 12:26:49;;;;;;;9.80;9.50;;;27.60;99.90;;;;;;6314165;22;20185;-77
2023/07/23 12:29:17;;;;;;;10.00;9.70;;;27.50;99.90;;;;;;6318124;22;20227;-78
2023/07/23 12:31:47;;;;;;;9.93;9.63;;;27.30;99.90;;;;;;6315886;22;20228;-78
2023/07/23 12:34:17;;;;;;;9.90;9.60;;;27.30;99.90;;;;;;6318192;22;20193;-77
2023/07/23 12:36:44;;;;;;;9.50;9.20;;;27.30;99.90;;;;;;6316844;22;20271;-77
2023/07/23 12:39:12;;;;;;;9.50;9.20;;;27.30;99.90;;;;;;6317531;22;20195;-80
2023/07/23 12:41:40;;;;;;;9.40;9.10;;;27.30;99.90;;;;;;6316871;22;20205;-77
2023/07/23 12:44:07;;;;;;;9.60;9.30;;;27.30;99.90;;;;;;6315775;22;20201;-76